Time;durP1;ratioP1;P1;durP2;ratioP2;P2;SDS_P1;SDS_P2;PMS_P1;PMS_P2;Temp;Humidity;BMP_temperature;BMP_pressure;BME280_temperature;BME280_humidity;BME280_pressure;Samples;Min_cycle;Max_cycle;Signal;HPM_P1;HPM_P2
2022/10/16 00:00:38;;;;;;;4.73;1.10;;;;;;;16.08;100.00;100615.47;5062691;28;20948;-79
2022/10/16 00:03:06;;;;;;;4.27;1.67;;;;;;;16.18;100.00;100620.50;5061698;28;20434;-79
2022/10/16 00:05:33;;;;;;;4.17;1.57;;;;;;;16.18;100.00;100623.22;5059486;28;20475;-79
2022/10/16 00:08:00;;;;;;;4.70;1.53;;;;;;;16.17;100.00;100621.63;5044538;28;20443;-80
2022/10/16 00:10:26;;;;;;;4.80;1.60;;;;;;;16.18;100.00;100615.03;5045362;28;20474;-79
2022/10/16 00:12:53;;;;;;;4.67;1.60;;;;;;;16.23;100.00;100631.19;5040610;28;20474;-80
2022/10/16 00:15:20;;;;;;;4.03;1.30;;;;;;;16.32;100.00;100631.91;5041527;28;20490;-79
2022/10/16 00:17:46;;;;;;;4.17;1.53;;;;;;;16.36;100.00;100629.28;5044892;28;20470;-79
2022/10/16 00:20:14;;;;;;;4.33;1.37;;;;;;;16.42;100.00;100629.88;5052812;28;20470;-79
2022/10/16 00:22:40;;;;;;;4.90;1.20;;;;;;;16.47;100.00;100635.94;5075960;22;20512;-68
2022/10/16 00:25:07;;;;;;;4.70;1.47;;;;;;;16.52;100.00;100637.66;5053501;28;20524;-68
2022/10/16 00:27:34;;;;;;;4.30;1.33;;;;;;;16.55;100.00;100637.75;5052842;28;20482;-67
2022/10/16 00:30:00;;;;;;;3.60;1.13;;;;;;;16.57;100.00;100643.69;5053476;28;20438;-67
2022/10/16 00:32:27;;;;;;;4.60;1.50;;;;;;;16.61;100.00;100652.03;5052438;28;20465;-67
2022/10/16 00:34:54;;;;;;;3.63;0.93;;;;;;;16.53;100.00;100661.13;5053366;28;20453;-67
2022/10/16 00:37:22;;;;;;;5.53;1.50;;;;;;;16.52;100.00;100648.59;5052658;28;20529;-67
2022/10/16 00:39:49;;;;;;;4.47;1.23;;;;;;;16.54;100.00;100649.03;5053339;28;20517;-67
2022/10/16 00:42:16;;;;;;;4.03;1.30;;;;;;;16.52;100.00;100648.59;5051654;28;20527;-67
2022/10/16 00:44:46;;;;;;;4.47;1.60;;;;;;;16.51;100.00;100644.22;5052698;28;20508;-67
2022/10/16 00:47:18;;;;;;;3.20;0.77;;;;;;;16.49;100.00;100636.38;5053189;28;20507;-67
2022/10/16 00:49:45;;;;;;;3.67;1.07;;;;;;;16.51;100.00;100642.31;5052672;28;20503;-67
2022/10/16 00:52:12;;;;;;;8.60;1.60;;;;;;;16.49;100.00;100649.25;5052433;28;20553;-67
2022/10/16 00:54:40;;;;;;;3.50;1.00;;;;;;;16.51;100.00;100652.44;5053215;28;20492;-67
2022/10/16 00:57:07;;;;;;;3.93;1.07;;;;;;;16.45;100.00;100670.22;5052413;28;20490;-67
2022/10/16 00:59:37;;;;;;;3.50;1.10;;;;;;;16.39;100.00;100664.16;5052706;28;20492;-67
2022/10/16 01:02:05;;;;;;;3.90;1.30;;;;;;;16.44;100.00;100663.16;5052156;28;20458;-67
2022/10/16 01:04:35;;;;;;;6.73;1.30;;;;;;;16.47;100.00;100671.47;5053431;28;20430;-67
2022/10/16 01:07:11;;;;;;;9.70;2.00;;;;;;;16.47;100.00;100665.19;5052539;28;20478;-67
2022/10/16 01:09:50;;;;;;;4.50;1.10;;;;;;;16.47;100.00;100665.19;5053156;28;20434;-67
2022/10/16 01:12:22;;;;;;;3.50;1.03;;;;;;;16.50;100.00;100661.78;5051373;28;20465;-67
2022/10/16 01:14:54;;;;;;;4.00;1.30;;;;;;;16.51;100.00;100672.41;5053197;28;20442;-67
2022/10/16 01:17:29;;;;;;;6.30;1.57;;;;;;;16.49;100.00;100674.66;5051992;28;20517;-67
2022/10/16 01:20:04;;;;;;;4.23;1.20;;;;;;;16.48;100.00;100673.06;5052963;28;20441;-67
2022/10/16 01:22:40;;;;;;;3.87;1.20;;;;;;;16.44;100.00;100671.34;5052249;28;20465;-67
2022/10/16 01:25:17;;;;;;;4.43;1.03;;;;;;;16.48;100.00;100670.34;5052297;28;20480;-67
2022/10/16 01:27:48;;;;;;;7.70;1.10;;;;;;;16.50;100.00;100675.47;5052925;28;20511;-67
2022/10/16 01:30:21;;;;;;;3.40;1.00;;;;;;;16.50;100.00;100679.00;5052178;28;20454;-67
2022/10/16 01:32:53;;;;;;;4.23;1.20;;;;;;;16.52;100.00;100684.13;5052802;28;20426;-67
2022/10/16 01:35:24;;;;;;;3.80;0.97;;;;;;;16.48;100.00;100683.22;5052270;28;20450;-67
2022/10/16 01:37:55;;;;;;;3.37;0.93;;;;;;;16.48;100.00;100686.75;5052534;28;20485;-67
2022/10/16 01:40:24;;;;;;;3.57;1.07;;;;;;;16.42;100.00;100690.81;5052211;28;20450;-67
2022/10/16 01:42:56;;;;;;;3.40;0.83;;;;;;;16.40;100.00;100688.44;5052518;28;20450;-67
2022/10/16 01:45:23;;;;;;;3.70;1.13;;;;;;;16.40;100.00;100676.69;5051778;28;20454;-67
2022/10/16 01:47:52;;;;;;;3.80;1.10;;;;;;;16.32;100.00;100674.84;5052597;28;20458;-67
2022/10/16 01:50:22;;;;;;;4.70;1.33;;;;;;;16.31;100.00;100682.25;5052292;28;20454;-68
2022/10/16 01:52:52;;;;;;;3.70;1.40;;;;;;;16.31;100.00;100684.19;5052618;28;20521;-68
2022/10/16 01:55:31;;;;;;;3.53;1.00;;;;;;;16.22;100.00;100695.22;5052026;28;20883;-68
2022/10/16 01:58:02;;;;;;;3.53;1.17;;;;;;;16.25;100.00;100696.47;5051616;28;20477;-68
2022/10/16 02:00:30;;;;;;;3.50;1.03;;;;;;;16.28;100.00;100699.31;5052566;28;20415;-68
2022/10/16 02:03:01;;;;;;;4.23;1.30;;;;;;;16.32;100.00;100708.44;5051681;28;20453;-68
2022/10/16 02:05:33;;;;;;;6.37;1.37;;;;;;;16.29;100.00;100717.34;5052324;28;20446;-68
2022/10/16 02:07:59;;;;;;;3.83;0.97;;;;;;;16.24;100.00;100708.53;5051612;28;20429;-67
2022/10/16 02:10:30;;;;;;;5.13;1.53;;;;;;;16.21;100.00;100710.03;5052422;28;20454;-67
2022/10/16 02:13:01;;;;;;;3.63;1.00;;;;;;;16.25;100.00;100715.63;5055205;28;20519;-68
2022/10/16 02:15:28;;;;;;;3.30;0.80;;;;;;;16.27;100.00;100727.00;5055763;28;20499;-67
2022/10/16 02:17:54;;;;;;;3.47;0.80;;;;;;;16.27;100.00;100735.19;5054934;28;20485;-67
2022/10/16 02:20:26;;;;;;;3.13;0.73;;;;;;;16.25;100.00;100734.75;5055562;28;20462;-67
2022/10/16 02:22:54;;;;;;;4.63;1.30;;;;;;;16.25;100.00;100729.28;5054654;28;20541;-67
2022/10/16 02:25:27;;;;;;;3.77;1.00;;;;;;;16.32;100.00;100721.31;5055751;28;20480;-67
2022/10/16 02:27:58;;;;;;;3.57;1.10;;;;;;;16.33;100.00;100720.19;5055323;28;20470;-67
2022/10/16 02:30:31;;;;;;;4.23;1.47;;;;;;;16.32;100.00;100726.78;5055725;28;20422;-67
2022/10/16 02:33:00;;;;;;;4.10;1.20;;;;;;;16.30;100.00;100735.34;5054399;28;20473;-65
2022/10/16 02:35:27;;;;;;;3.13;0.80;;;;;;;16.28;100.00;100742.25;5055521;28;20446;-67
2022/10/16 02:37:55;;;;;;;3.50;1.13;;;;;;;16.26;100.00;100739.06;5054865;28;20578;-66
2022/10/16 02:40:22;;;;;;;3.67;1.00;;;;;;;16.25;100.00;100732.81;5055496;28;20492;-67
2022/10/16 02:42:51;;;;;;;3.70;1.20;;;;;;;16.23;100.00;100737.00;5054012;28;20464;-67
2022/10/16 02:45:18;;;;;;;4.00;1.20;;;;;;;16.20;100.00;100740.41;5055367;28;20454;-68
2022/10/16 02:47:46;;;;;;;4.00;1.20;;;;;;;16.19;100.00;100731.41;5054763;28;20478;-66
2022/10/16 02:50:13;;;;;;;3.30;1.03;;;;;;;16.14;100.00;100743.34;5055588;28;20443;-66
2022/10/16 02:52:40;;;;;;;3.77;0.73;;;;;;;16.11;100.00;100745.94;5054384;28;20477;-66
2022/10/16 02:55:07;;;;;;;3.80;1.10;;;;;;;16.06;100.00;100732.47;5055282;28;20480;-66
2022/10/16 02:57:34;;;;;;;3.60;1.03;;;;;;;16.07;100.00;100728.59;5054702;28;20494;-66
2022/10/16 03:00:00;;;;;;;3.60;0.93;;;;;;;16.05;100.00;100734.41;5055131;28;20453;-65
2022/10/16 03:02:26;;;;;;;3.60;1.00;;;;;;;16.03;100.00;100738.63;5054102;28;20454;-66
2022/10/16 03:04:54;;;;;;;5.73;1.37;;;;;;;15.93;100.00;100745.28;5055070;28;20438;-66
2022/10/16 03:07:21;;;;;;;3.83;1.07;;;;;;;15.88;100.00;100740.81;5053831;28;20818;-67
2022/10/16 03:09:47;;;;;;;4.00;1.50;;;;;;;15.84;100.00;100748.06;5054960;28;20500;-67
2022/10/16 03:12:13;;;;;;;3.53;0.93;;;;;;;15.73;100.00;100749.59;5054720;28;20466;-68
2022/10/16 03:14:40;;;;;;;3.60;1.10;;;;;;;15.73;100.00;100752.34;5054854;28;20469;-67
2022/10/16 03:17:07;;;;;;;3.60;1.20;;;;;;;15.70;100.00;100749.47;5053860;28;20525;-67
2022/10/16 03:19:34;;;;;;;4.50;1.30;;;;;;;15.68;100.00;100757.19;5053731;28;20458;-67
2022/10/16 03:22:02;;;;;;;3.97;1.07;;;;;;;15.60;100.00;100759.63;5053053;28;20476;-67
2022/10/16 03:24:28;;;;;;;3.80;0.83;;;;;;;15.54;100.00;100762.88;5054703;28;20438;-67
2022/10/16 03:26:55;;;;;;;3.20;0.63;;;;;;;15.49;100.00;100758.38;5054142;28;20478;-67
2022/10/16 03:29:21;;;;;;;3.90;1.10;;;;;;;15.36;100.00;100760.25;5053325;28;20970;-68
2022/10/16 03:31:49;;;;;;;3.60;1.00;;;;;;;15.32;100.00;100766.69;5054542;28;20446;-68
2022/10/16 03:34:15;;;;;;;4.13;1.27;;;;;;;15.28;100.00;100769.25;5053922;28;20512;-68
2022/10/16 03:36:42;;;;;;;3.87;0.87;;;;;;;15.27;100.00;100766.84;5054303;28;20481;-67
2022/10/16 03:39:09;;;;;;;3.80;1.00;;;;;;;15.21;100.00;100770.91;5052664;28;20462;-68
2022/10/16 03:41:36;;;;;;;4.70;1.13;;;;;;;15.20;100.00;100780.22;5054347;28;20450;-67
2022/10/16 03:44:02;;;;;;;3.90;1.30;;;;;;;15.17;100.00;100784.38;5053476;28;20466;-67
2022/10/16 03:46:29;;;;;;;4.60;1.50;;;;;;;15.16;100.00;100790.97;5054176;28;20510;-67
2022/10/16 03:48:55;;;;;;;3.70;1.13;;;;;;;15.11;100.00;100783.78;5052587;28;20545;-68
2022/10/16 03:51:22;;;;;;;4.43;1.10;;;;;;;15.08;100.00;100791.81;5053820;28;20932;-68
2022/10/16 03:53:48;;;;;;;5.40;1.37;;;;;;;15.07;100.00;100795.66;5053676;28;20462;-68
2022/10/16 03:56:16;;;;;;;3.57;1.03;;;;;;;15.09;100.00;100801.59;5053907;28;20470;-68
2022/10/16 03:58:43;;;;;;;4.23;1.07;;;;;;;15.10;100.00;100795.81;5053115;28;20458;-67
2022/10/16 04:01:09;;;;;;;4.20;1.50;;;;;;;15.11;100.00;100794.69;5053933;28;20453;-67
2022/10/16 04:03:35;;;;;;;3.87;1.27;;;;;;;15.12;100.00;100806.41;5053283;28;20458;-67
2022/10/16 04:06:02;;;;;;;4.33;1.30;;;;;;;15.11;100.00;100813.00;5053896;28;20528;-67
2022/10/16 04:08:28;;;;;;;3.87;1.07;;;;;;;15.11;100.00;100804.81;5052695;28;20951;-67
2022/10/16 04:10:55;;;;;;;5.23;1.20;;;;;;;15.09;100.00;100809.75;5053892;28;20439;-67
2022/10/16 04:13:22;;;;;;;4.50;1.37;;;;;;;15.06;100.00;100811.25;5053209;28;20458;-68
2022/10/16 04:15:49;;;;;;;4.07;1.30;;;;;;;15.03;100.00;100811.09;5053959;28;20442;-70
2022/10/16 04:18:15;;;;;;;3.30;0.83;;;;;;;15.00;100.00;100806.25;5052290;28;20995;-69
2022/10/16 04:20:41;;;;;;;3.77;1.27;;;;;;;14.99;100.00;100801.94;5053566;28;20446;-67
2022/10/16 04:23:08;;;;;;;3.20;0.67;;;;;;;14.97;100.00;100805.00;5052673;28;20454;-68
2022/10/16 04:25:34;;;;;;;3.90;0.93;;;;;;;14.96;100.00;100802.59;5053458;28;20442;-68
2022/10/16 04:28:01;;;;;;;4.37;1.70;;;;;;;14.97;100.00;100801.47;5052583;28;20489;-68
2022/10/16 04:30:28;;;;;;;4.60;1.30;;;;;;;14.94;100.00;100794.75;5053623;28;20450;-68
2022/10/16 04:32:55;;;;;;;3.57;1.07;;;;;;;14.94;100.00;100783.81;5052903;28;20453;-68
2022/10/16 04:35:22;;;;;;;4.20;1.10;;;;;;;14.93;100.00;100793.13;5052757;28;20500;-68
2022/10/16 04:37:48;;;;;;;3.67;1.10;;;;;;;14.88;100.00;100794.13;5052383;28;20490;-68
2022/10/16 04:40:15;;;;;;;3.47;1.10;;;;;;;14.88;100.00;100791.38;5053214;28;20451;-68
2022/10/16 04:42:41;;;;;;;4.43;1.33;;;;;;;14.86;100.00;100788.16;5052720;28;20435;-68
2022/10/16 04:45:09;;;;;;;4.07;1.23;;;;;;;14.79;100.00;100790.63;5053276;28;20809;-68
2022/10/16 04:47:37;;;;;;;4.90;1.47;;;;;;;14.71;100.00;100788.69;5053239;28;20561;-68
2022/10/16 04:50:04;;;;;;;3.47;0.97;;;;;;;14.65;100.00;100779.06;5052865;28;20512;-67
2022/10/16 04:52:31;;;;;;;4.50;1.40;;;;;;;14.63;100.00;100786.78;5053174;28;20434;-67
2022/10/16 04:55:00;;;;;;;4.00;1.10;;;;;;;14.62;100.00;100783.25;5051792;28;20986;-67
2022/10/16 04:57:27;;;;;;;5.73;1.20;;;;;;;14.59;100.00;100794.00;5052988;28;20490;-67
2022/10/16 04:59:54;;;;;;;4.10;0.90;;;;;;;14.58;100.00;100797.84;5045426;28;20533;-67
2022/10/16 05:02:20;;;;;;;4.87;1.57;;;;;;;14.58;100.00;100806.03;5052052;28;20462;-68
2022/10/16 05:04:48;;;;;;;4.20;1.50;;;;;;;14.56;100.00;100813.72;5053065;28;20492;-67
2022/10/16 05:07:15;;;;;;;3.80;1.03;;;;;;;14.50;100.00;100815.03;5050582;28;20474;-68
2022/10/16 05:09:41;;;;;;;3.67;1.10;;;;;;;14.45;100.00;100805.06;5049938;28;20469;-68
2022/10/16 05:12:08;;;;;;;4.50;1.50;;;;;;;14.43;100.00;100820.91;5052106;28;20959;-68
2022/10/16 05:14:34;;;;;;;3.63;1.20;;;;;;;14.44;100.00;100821.72;5052949;28;20447;-67
2022/10/16 05:17:01;;;;;;;5.00;1.67;;;;;;;14.42;100.00;100818.50;5051465;28;20913;-68
2022/10/16 05:19:27;;;;;;;3.70;1.20;;;;;;;14.45;100.00;100820.59;5052005;28;20489;-67
2022/10/16 05:21:55;;;;;;;4.00;1.33;;;;;;;14.46;100.00;100811.28;5052671;28;20878;-68
2022/10/16 05:24:21;;;;;;;4.10;1.20;;;;;;;14.45;100.00;100815.16;5051132;28;20563;-68
2022/10/16 05:26:48;;;;;;;4.83;1.83;;;;;;;14.49;100.00;100824.31;5052798;28;20470;-68
2022/10/16 05:29:14;;;;;;;4.03;1.63;;;;;;;14.50;100.00;100826.72;5051938;28;20856;-68
2022/10/16 05:31:41;;;;;;;3.97;1.30;;;;;;;14.47;100.00;100830.03;5052666;28;20543;-70
2022/10/16 05:34:07;;;;;;;3.70;1.10;;;;;;;14.49;100.00;100829.78;5052251;28;20447;-68
2022/10/16 05:36:33;;;;;;;5.00;1.67;;;;;;;14.52;100.00;100846.28;5052741;28;20470;-68
2022/10/16 05:39:01;;;;;;;6.07;1.60;;;;;;;14.54;100.00;100849.50;5051906;28;20478;-68
2022/10/16 05:41:28;;;;;;;3.93;1.10;;;;;;;14.56;100.00;100846.44;5052043;28;20450;-67
2022/10/16 05:43:54;;;;;;;5.20;1.43;;;;;;;14.59;100.00;100838.41;5051889;28;20485;-67
2022/10/16 05:46:21;;;;;;;3.70;1.23;;;;;;;14.64;100.00;100837.44;5055235;28;20462;-68
2022/10/16 05:48:47;;;;;;;3.97;1.10;;;;;;;14.67;100.00;100844.19;5055418;28;20955;-67
2022/10/16 05:51:15;;;;;;;5.00;1.50;;;;;;;14.71;100.00;100832.31;5055420;28;20458;-68
2022/10/16 05:53:41;;;;;;;4.33;1.27;;;;;;;14.74;100.00;100842.59;5055882;28;20465;-67
2022/10/16 05:56:12;;;;;;;5.23;1.60;;;;;;;14.79;100.00;100844.34;5056242;28;20521;-68
2022/10/16 05:58:40;;;;;;;5.10;1.87;;;;;;;14.84;100.00;100850.44;5055219;28;20990;-68
2022/10/16 06:01:08;;;;;;;4.10;1.30;;;;;;;14.86;100.00;100850.09;5055312;28;20457;-68
2022/10/16 06:03:35;;;;;;;4.43;1.60;;;;;;;14.87;100.00;100846.25;5056262;28;20438;-68
2022/10/16 06:06:09;;;;;;;4.27;1.50;;;;;;;14.93;100.00;100846.91;5055262;28;20638;-68
2022/10/16 06:08:35;;;;;;;4.70;1.73;;;;;;;14.96;100.00;100854.41;5056219;28;20419;-67
2022/10/16 06:11:03;;;;;;;4.17;1.37;;;;;;;15.02;100.00;100850.41;5055159;28;20477;-68
2022/10/16 06:13:30;;;;;;;3.90;1.30;;;;;;;15.08;100.00;100849.09;5056065;28;20438;-68
2022/10/16 06:16:01;;;;;;;4.47;1.40;;;;;;;15.15;100.00;100843.97;5065203;22;20478;-80
2022/10/16 06:18:28;;;;;;;4.37;1.40;;;;;;;15.21;100.00;100844.56;5037619;28;20483;-80
2022/10/16 06:20:56;;;;;;;3.70;1.10;;;;;;;15.29;100.00;100871.03;5038041;28;20477;-79
2022/10/16 06:23:23;;;;;;;4.50;1.77;;;;;;;15.34;100.00;100865.41;5037607;28;20451;-79
2022/10/16 06:25:49;;;;;;;3.90;0.80;;;;;;;15.38;100.00;100866.34;5055333;22;20504;-78
2022/10/16 06:28:16;;;;;;;3.83;1.20;;;;;;;15.42;100.00;100875.50;5063066;28;20442;-79
2022/10/16 06:30:44;;;;;;;4.53;1.40;;;;;;;15.44;100.00;100878.69;5057960;28;20830;-79
2022/10/16 06:33:16;;;;;;;5.10;1.30;;;;;;;15.41;100.00;100882.09;5059498;28;20946;-80
2022/10/16 06:35:43;;;;;;;4.43;1.30;;;;;;;15.42;100.00;100885.63;5060217;28;20465;-79
2022/10/16 06:38:09;;;;;;;3.23;0.90;;;;;;;15.49;100.00;100894.09;5060891;28;20576;-79
2022/10/16 06:40:36;;;;;;;4.20;1.20;;;;;;;15.56;100.00;100902.59;5061622;28;20451;-79
2022/10/16 06:43:03;;;;;;;3.80;1.20;;;;;;;15.62;100.00;100906.72;5060324;28;20462;-79
2022/10/16 06:45:29;;;;;;;5.20;1.10;;;;;;;15.63;100.00;100913.81;5061297;28;20482;-79
2022/10/16 06:47:57;;;;;;;4.30;1.27;;;;;;;15.70;100.00;100908.66;5060924;28;20454;-79
2022/10/16 06:50:23;;;;;;;3.80;1.13;;;;;;;15.79;100.00;100901.22;5059763;28;20458;-79
2022/10/16 06:52:50;;;;;;;3.93;1.27;;;;;;;15.77;100.00;100900.78;5058825;28;20462;-79
2022/10/16 06:55:17;;;;;;;4.13;1.30;;;;;;;15.84;100.00;100909.25;5058235;28;20469;-79
2022/10/16 06:57:44;;;;;;;7.00;1.57;;;;;;;15.93;100.00;100906.47;5060021;28;20516;-79
2022/10/16 07:00:11;;;;;;;3.93;1.47;;;;;;;16.03;100.00;100921.72;5059996;28;20496;-79
2022/10/16 07:02:37;;;;;;;3.97;1.03;;;;;;;16.14;100.00;100928.38;5056792;28;20465;-79
2022/10/16 07:05:06;;;;;;;3.80;1.10;;;;;;;16.22;100.00;100929.47;5058395;28;20443;-79
2022/10/16 07:07:33;;;;;;;3.93;1.30;;;;;;;16.32;100.00;100938.09;5061230;28;20529;-79
2022/10/16 07:09:59;;;;;;;7.00;1.40;;;;;;;16.34;100.00;100938.56;5058372;28;20944;-79
2022/10/16 07:12:26;;;;;;;4.00;1.30;;;;;;;16.40;100.00;100944.63;5059651;28;20844;-79
2022/10/16 07:14:54;;;;;;;4.80;1.60;;;;;;;16.44;100.00;100942.06;5058563;28;20516;-79
2022/10/16 07:17:20;;;;;;;4.50;1.10;;;;;;;16.46;100.00;100939.78;5057725;28;20436;-80
2022/10/16 07:19:47;;;;;;;5.03;1.30;;;;;;;16.52;100.00;100933.78;5056954;28;20533;-79
2022/10/16 07:22:14;;;;;;;4.00;1.20;;;;;;;16.60;100.00;100934.84;5058581;28;20462;-79
2022/10/16 07:24:41;;;;;;;4.50;1.37;;;;;;;16.61;100.00;100931.78;5057048;28;20462;-80
2022/10/16 07:27:07;;;;;;;6.20;1.40;;;;;;;16.68;100.00;100933.19;5054673;28;20502;-79
2022/10/16 07:29:34;;;;;;;4.10;1.20;;;;;;;16.71;100.00;100938.78;5056544;28;20438;-82
2022/10/16 07:32:00;;;;;;;3.70;1.07;;;;;;;16.76;100.00;100927.69;5058633;28;20458;-82
2022/10/16 07:34:27;;;;;;;3.80;1.20;;;;;;;16.80;100.00;100939.56;5055963;28;20450;-82
2022/10/16 07:36:53;;;;;;;4.00;1.17;;;;;;;16.85;100.00;100947.56;5056630;28;20481;-82
2022/10/16 07:39:23;;;;;;;4.27;1.40;;;;;;;16.89;100.00;100945.75;5054623;28;20528;-82
2022/10/16 07:41:49;;;;;;;4.17;1.40;;;;;;;16.93;100.00;100954.09;5056556;28;20782;-82
2022/10/16 07:44:16;;;;;;;3.80;1.40;;;;;;;16.98;100.00;100945.69;5051938;28;20459;-82
2022/10/16 07:46:43;;;;;;;7.83;1.27;;;;;;;17.00;100.00;100948.06;5055491;28;20637;-82
2022/10/16 07:49:10;;;;;;;3.37;0.80;;;;;;;17.03;100.00;100941.94;5055535;28;20459;-81
2022/10/16 07:51:38;;;;;;;3.53;1.13;;;;;;;17.01;100.00;100944.22;5056775;28;20520;-81
2022/10/16 07:54:04;;;;;;;4.03;1.10;;;;;;;16.98;100.00;100955.84;5055148;28;20467;-80
2022/10/16 07:56:33;;;;;;;3.50;1.10;;;;;;;16.98;100.00;100966.78;5056821;28;20474;-80
2022/10/16 07:58:59;;;;;;;4.00;0.93;;;;;;;17.00;100.00;100967.22;5065827;28;20493;-77
2022/10/16 08:01:26;;;;;;;3.60;1.00;;;;;;;17.02;100.00;100973.19;5056884;28;20470;-78
2022/10/16 08:03:52;;;;;;;5.10;1.43;;;;;;;17.02;100.00;100986.88;5058582;28;20442;-78
2022/10/16 08:06:21;;;;;;;4.47;1.10;;;;;;;17.05;100.00;100991.69;5057123;28;20522;-78
2022/10/16 08:08:47;;;;;;;4.80;1.43;;;;;;;17.06;100.00;100990.53;5055597;28;20466;-78
2022/10/16 08:11:14;;;;;;;3.60;1.10;;;;;;;17.12;100.00;100983.72;5055421;28;20880;-77
2022/10/16 08:13:43;;;;;;;3.50;1.17;;;;;;;17.18;100.00;100982.41;5055283;28;20477;-81
2022/10/16 08:16:09;;;;;;;3.77;1.20;;;;;;;17.19;100.00;100973.03;5055163;28;20493;-80
2022/10/16 08:18:36;;;;;;;3.77;1.13;;;;;;;17.23;100.00;100976.72;5054448;28;20493;-81
2022/10/16 08:21:04;;;;;;;4.30;1.40;;;;;;;17.22;100.00;100977.84;5053750;28;20470;-81
2022/10/16 08:23:31;;;;;;;5.83;1.67;;;;;;;17.26;100.00;100991.66;5054797;28;20989;-81
2022/10/16 08:26:03;;;;;;;4.00;1.23;;;;;;;17.30;100.00;100990.63;5055023;28;20989;-80
2022/10/16 08:28:30;;;;;;;4.07;1.37;;;;;;;17.32;100.00;100993.84;5055466;28;20790;-81
2022/10/16 08:31:05;;;;;;;3.93;1.03;;;;;;;17.36;100.00;100989.31;5054489;28;20471;-81
2022/10/16 08:33:34;;;;;;;4.10;1.27;;;;;;;17.45;100.00;100993.91;5054934;28;20841;-81
2022/10/16 08:36:01;;;;;;;3.40;0.90;;;;;;;17.48;100.00;101001.44;5054651;28;20492;-81
2022/10/16 08:38:27;;;;;;;3.70;1.10;;;;;;;17.56;100.00;101000.53;5055094;28;20484;-80
2022/10/16 08:41:02;;;;;;;3.47;1.00;;;;;;;17.61;99.76;101001.13;5056091;28;20465;-80
2022/10/16 08:43:55;;;;;;;4.07;1.30;;;;;;;17.68;99.53;100995.09;5056159;28;20947;-81
2022/10/16 08:46:35;;;;;;;7.20;1.00;;;;;;;17.74;98.47;101004.72;5058084;28;20490;-80
2022/10/16 08:49:03;;;;;;;3.80;1.10;;;;;;;17.76;98.62;101007.94;5057430;28;20508;-79
2022/10/16 08:51:32;;;;;;;3.63;1.13;;;;;;;17.81;98.28;101009.66;5056308;28;20458;-79
2022/10/16 08:54:02;;;;;;;4.27;1.10;;;;;;;17.86;98.29;101003.97;5057136;28;20453;-79
2022/10/16 08:56:28;;;;;;;5.13;1.27;;;;;;;17.95;98.23;101009.34;5056562;28;20474;-78
2022/10/16 08:58:55;;;;;;;3.10;0.70;;;;;;;18.06;97.88;101016.81;5056018;28;20482;-78
2022/10/16 09:01:23;;;;;;;4.47;1.30;;;;;;;18.13;96.95;101024.44;5043134;28;20508;-77
2022/10/16 09:04:05;;;;;;;3.53;1.00;;;;;;;18.09;97.29;101020.78;5049201;28;20450;-78
2022/10/16 09:06:46;;;;;;;4.93;1.20;;;;;;;18.16;96.33;101018.28;5056399;28;20474;-78
2022/10/16 09:09:34;;;;;;;3.80;1.03;;;;;;;18.19;96.54;101023.06;5054504;28;20978;-78
2022/10/16 09:12:08;;;;;;;5.07;1.43;;;;;;;18.32;96.33;101034.84;5055037;28;20463;-78
2022/10/16 09:14:51;;;;;;;3.70;1.10;;;;;;;18.44;95.06;101037.59;5054353;28;20434;-78
2022/10/16 09:17:30;;;;;;;3.80;1.00;;;;;;;18.40;95.38;101029.25;5054375;28;20938;-78
2022/10/16 09:20:14;;;;;;;3.60;1.10;;;;;;;18.51;95.12;101026.88;5052857;28;20474;-79
2022/10/16 09:22:41;;;;;;;3.30;0.80;;;;;;;18.60;94.01;101024.00;5061651;28;20473;-79
2022/10/16 09:25:13;;;;;;;4.10;1.03;;;;;;;18.61;93.48;101033.81;5061193;28;20498;-79
2022/10/16 09:27:40;;;;;;;3.10;0.90;;;;;;;18.59;93.07;101039.66;5060294;28;20477;-79
2022/10/16 09:30:13;;;;;;;4.97;1.33;;;;;;;18.61;93.77;101033.81;5061293;28;20454;-79
2022/10/16 09:32:41;;;;;;;3.30;0.97;;;;;;;18.60;94.09;101035.78;5060636;28;20504;-79
2022/10/16 09:35:14;;;;;;;3.40;0.87;;;;;;;18.65;92.31;101034.75;5063164;28;20870;-80
2022/10/16 09:37:43;;;;;;;3.43;0.90;;;;;;;18.59;92.85;101036.94;5067905;28;20454;-79
2022/10/16 09:40:14;;;;;;;3.57;0.90;;;;;;;18.52;92.86;101055.91;5063629;28;20485;-80
2022/10/16 09:42:41;;;;;;;3.00;0.60;;;;;;;18.48;93.27;101051.44;5060696;28;20435;-80
2022/10/16 09:45:23;;;;;;;3.50;0.90;;;;;;;18.53;93.66;101051.19;5059926;28;20485;-81
2022/10/16 09:47:53;;;;;;;5.70;0.87;;;;;;;18.58;93.61;101054.50;5060248;28;20447;-80
2022/10/16 09:50:27;;;;;;;3.30;0.57;;;;;;;18.81;92.67;101063.09;5058929;28;20473;-80
2022/10/16 09:53:13;;;;;;;4.90;1.20;;;;;;;18.98;92.22;101070.28;5061062;28;20426;-79
2022/10/16 09:55:51;;;;;;;3.93;1.20;;;;;;;19.21;90.86;101069.78;5060215;28;20556;-80
2022/10/16 09:59:03;;;;;;;3.30;0.67;;;;;;;19.33;90.47;101069.75;5059835;28;20536;-79
2022/10/16 10:02:06;;;;;;;;;;;;;;;;;;;;;
2022/10/16 10:04:54;;;;;;;3.73;0.87;;;;;;;19.62;87.30;101074.13;5015563;28;20458;-80
2022/10/16 10:07:27;;;;;;;3.47;1.03;;;;;;;19.59;86.76;101083.84;5058824;28;20431;-79
2022/10/16 10:09:55;;;;;;;3.70;1.00;;;;;;;19.68;87.01;101078.22;5056939;28;20559;-79
2022/10/16 10:12:24;;;;;;;3.37;1.10;;;;;;;19.63;88.01;101089.47;5059555;28;20450;-79
2022/10/16 10:14:52;;;;;;;3.30;0.70;;;;;;;19.65;87.05;101087.16;5055638;28;20458;-79
2022/10/16 10:17:22;;;;;;;3.33;0.83;;;;;;;19.65;85.75;101081.66;5057137;28;20492;-79
2022/10/16 10:19:52;;;;;;;3.73;1.00;;;;;;;19.56;86.21;101081.78;5038337;28;20525;-79
2022/10/16 10:22:30;;;;;;;3.60;1.10;;;;;;;19.50;85.56;101083.19;5046284;28;20437;-79
2022/10/16 10:24:58;;;;;;;3.40;0.90;;;;;;;19.45;86.70;101097.19;5058722;28;20438;-79
2022/10/16 10:27:33;;;;;;;5.63;0.97;;;;;;;19.42;86.93;101104.16;5058889;28;20438;-81
2022/10/16 10:30:06;;;;;;;3.67;1.00;;;;;;;19.46;86.72;101103.47;5058653;28;20895;-79
2022/10/16 10:32:43;;;;;;;3.70;1.17;;;;;;;19.47;86.41;101113.31;5057302;28;20938;-79
2022/10/16 10:35:17;;;;;;;3.37;0.90;;;;;;;19.48;85.96;101112.97;5058232;28;20476;-79
2022/10/16 10:38:04;;;;;;;3.30;0.80;;;;;;;19.63;86.28;101122.47;5057887;28;20451;-79
2022/10/16 10:40:40;;;;;;;3.83;1.00;;;;;;;19.76;84.53;101121.25;5045847;28;20471;-79
2022/10/16 10:43:16;;;;;;;3.13;0.70;;;;;;;19.97;84.28;101106.50;5041749;28;20435;-78
2022/10/16 10:45:46;;;;;;;4.17;1.20;;;;;;;20.09;83.02;101109.16;5059016;28;20987;-78
2022/10/16 10:48:28;;;;;;;3.33;0.87;;;;;;;20.30;80.93;101111.69;5058457;28;20508;-78
2022/10/16 10:50:58;;;;;;;3.27;0.90;;;;;;;20.51;79.89;101104.00;5059367;28;20458;-80
2022/10/16 10:53:40;;;;;;;3.10;0.70;;;;;;;20.63;78.93;101106.66;5060270;28;20809;-79
2022/10/16 10:56:16;;;;;;;3.67;0.70;;;;;;;20.79;79.33;101101.13;5061468;28;20489;-80
2022/10/16 10:58:58;;;;;;;3.33;0.80;;;;;;;20.84;78.20;101105.56;5061053;28;20458;-80
2022/10/16 11:01:34;;;;;;;3.37;0.80;;;;;;;20.59;77.83;101113.25;5058841;28;20462;-78
2022/10/16 11:04:28;;;;;;;3.30;0.90;;;;;;;20.56;77.40;101116.69;5058631;28;20426;-80
2022/10/16 11:07:00;;;;;;;4.73;1.17;;;;;;;20.50;76.65;101109.88;5060722;28;20985;-79
2022/10/16 11:09:34;;;;;;;3.37;0.83;;;;;;;20.51;76.70;101111.47;5058381;28;20447;-79
2022/10/16 11:12:06;;;;;;;3.00;0.70;;;;;;;20.35;75.85;101111.41;5061365;28;20807;-79
2022/10/16 11:14:37;;;;;;;3.63;0.93;;;;;;;20.40;77.75;101111.94;5060651;28;20465;-79
2022/10/16 11:17:10;;;;;;;3.40;0.90;;;;;;;20.36;75.52;101111.09;5060060;28;20470;-80
2022/10/16 11:19:42;;;;;;;7.30;1.27;;;;;;;20.37;75.43;101109.94;5057842;28;20493;-80
2022/10/16 11:22:14;;;;;;;3.60;1.00;;;;;;;20.31;76.61;101108.56;5059500;28;20434;-79
2022/10/16 11:24:48;;;;;;;8.83;0.80;;;;;;;20.36;75.75;101107.50;5059852;28;20466;-79
2022/10/16 11:27:18;;;;;;;3.13;0.77;;;;;;;20.60;74.09;101107.38;5057550;28;20433;-79
2022/10/16 11:29:51;;;;;;;3.07;0.60;;;;;;;20.92;71.50;101107.31;5060249;28;20446;-80